M/V Gs980 — WTK9405 — position and weather

sailwx.info

Track history (hours):
 
Tides and Currents Weather Stations Pressure Air Temp Water Temp Dewpoint Dewpoint Depression Visibility Wind Speed Wind Dir Waves Ship Positions

M/V Gs980

Owner: ERGON MARINE AND INDUSTRIAL SUPPLY, VICKSBURG, MS. More information available from US FCC via Universal Licensing System and Coast Guard Vessel Documentation Center.

Last reported at 2016-May-30 00:33 UTC. Time now 2016-May-30 01:05 UTC.
Position N 32°22' W 090°53'.

Length 16 m.

Type: Towing. MMSI: 367099640.

Date/timePositionNaut miles runAvg speedWind from/ knotsBaromVisibWave heightAir tempDewpointWater temp
2016-May-30 00:33N 32°22' W 090°53'2 0.6
2016-May-29 21:34N 32°20' W 090°54'0 0.4
2016-May-29 20:34N 32°21' W 090°53'0 0.4
2016-May-29 19:34N 32°20' W 090°54'1 1.4
2016-May-29 18:33N 32°21' W 090°53'1 0.6
2016-May-29 17:33N 32°22' W 090°53'4 3.8
2016-May-29 16:34N 32°21' W 090°57'0 0.3
2016-May-29 15:34N 32°21' W 090°57'4 3.8
2016-May-29 14:34N 32°23' W 090°53'1 0.6
2016-May-29 13:34N 32°22' W 090°53'1 0.7
2016-May-29 12:34N 32°22' W 090°53'1 0.7
2016-May-29 10:34N 32°20' W 090°54'1 1.4
2016-May-29 09:33N 32°22' W 090°53'0 0.0
2016-May-29 08:33N 32°22' W 090°53'0 0.0
2016-May-29 07:33N 32°22' W 090°53'0 0.0
2016-May-29 06:33N 32°22' W 090°53'0 0.0
2016-May-29 05:34N 32°22' W 090°53'0 0.0
2016-May-29 04:33N 32°22' W 090°53'0 0.0
2016-May-29 03:34N 32°22' W 090°53'1 1.2
2016-May-29 02:33N 32°23' W 090°53'1 0.6
2016-May-29 01:34N 32°22' W 090°53'1 0.9
2016-May-29 00:34N 32°21' W 090°53'2 0.9
2016-May-28 22:17N 32°20' W 090°54'1 1.6
2016-May-28 21:34N 32°21' W 090°53'0 0.2
2016-May-28 20:34N 32°21' W 090°54'3 2.7
2016-May-28 19:34N 32°21' W 090°57'1 0.6
2016-May-28 18:34N 32°21' W 090°56'3 3.4
2016-May-28 17:34N 32°23' W 090°53'1 1.3
2016-May-28 16:34N 32°22' W 090°53'0 0.3
2016-May-28 15:34N 32°22' W 090°53'1 0.7
2016-May-28 14:34N 32°22' W 090°53'1 0.7
2016-May-28 13:34N 32°22' W 090°53'2 0.4
2016-May-28 09:33N 32°20' W 090°54'0 0.1
2016-May-28 08:33N 32°20' W 090°54'3 2.7
2016-May-28 07:33N 32°21' W 090°57'0 0.1
2016-May-28 06:33N 32°21' W 090°57'3 3.1
2016-May-28 05:33N 32°21' W 090°53'2 2.0
2016-May-28 04:33N 32°23' W 090°53'0 0.4
2016-May-28 03:33N 32°23' W 090°53'1 0.7
2016-May-28 02:33N 32°22' W 090°53'1 0.7
2016-May-28 01:33N 32°22' W 090°53'2 2.1
2016-May-28 00:33N 32°23' W 090°55'4 3.6
2016-May-27 23:33N 32°20' W 090°54'0 0.0
2016-May-27 22:09N 32°20' W 090°54'3 4.6
2016-May-27 21:33N 32°22' W 090°53'2 1.9
2016-May-27 20:33N 32°20' W 090°54'1 1.0
2016-May-27 19:33N 32°21' W 090°53'2 1.9
2016-May-27 18:33N 32°23' W 090°53'0 0.3
2016-May-27 17:33N 32°23' W 090°53'0 0.3
2016-May-27 16:33N 32°23' W 090°53'0 0.0
2016-May-27 15:33N 32°23' W 090°53'1 0.7
2016-May-27 14:33N 32°22' W 090°53'0 0.0
2016-May-27 13:33N 32°22' W 090°53'1 0.8
2016-May-27 12:33N 32°23' W 090°53'2 2.4
2016-May-27 11:33N 32°21' W 090°53'1 1.3
2016-May-27 10:33N 32°20' W 090°54'0 0.0
2016-May-27 09:33N 32°20' W 090°54'4 3.6
2016-May-27 08:33N 32°23' W 090°55'2 2.0
2016-May-27 07:33N 32°22' W 090°53'2 1.8
2016-May-27 06:33N 32°20' W 090°54'1 0.8
2016-May-27 05:33N 32°21' W 090°55'2 1.8
2016-May-27 04:33N 32°21' W 090°57'3 2.8
2016-May-27 03:33N 32°21' W 090°54'0 0.3
2016-May-27 02:33N 32°21' W 090°53'1 0.5
2016-May-27 01:33N 32°20' W 090°54'0 0.0
2016-May-27 00:33N 32°20' W 090°54'0 0.1
2016-May-26 22:10N 32°20' W 090°54'3 4.7
2016-May-26 21:34N 32°23' W 090°54'0 0.0
2016-May-26 20:33N 32°23' W 090°54'1 1.4
2016-May-26 19:33N 32°22' W 090°52'0 0.5
2016-May-26 18:33N 32°22' W 090°53'0 0.0
2016-May-26 17:33N 32°22' W 090°53'0 0.2
2016-May-26 16:34N 32°22' W 090°53'1 0.9
2016-May-26 15:33N 32°23' W 090°54'0 0.0
2016-May-26 14:33N 32°23' W 090°54'1 1.3
2016-May-26 13:33N 32°22' W 090°53'0 0.2
2016-May-26 12:33N 32°22' W 090°53'2 2.0
2016-May-26 11:34N 32°20' W 090°54'0 0.1
2016-May-26 10:33N 32°20' W 090°54'1 1.4
2016-May-26 09:33N 32°22' W 090°53'0 0.0
2016-May-26 08:33N 32°22' W 090°53'0 0.0
2016-May-26 07:33N 32°22' W 090°53'0 0.0
2016-May-26 06:33N 32°22' W 090°53'0 0.0
2016-May-26 05:33N 32°22' W 090°53'0 0.0
2016-May-26 04:33N 32°22' W 090°53'0 0.0
2016-May-26 03:33N 32°22' W 090°53'1 0.6
2016-May-26 02:33N 32°22' W 090°53'0 0.5
2016-May-26 01:33N 32°23' W 090°52'4 4.4
2016-May-26 00:33N 32°21' W 090°57'1 1.4
2016-May-25 23:33N 32°21' W 090°56'2 0.2
2016-May-25 07:33N 32°22' W 090°53'2 1.7
2016-May-25 06:33N 32°23' W 090°53'0 0.1
2016-May-25 05:33N 32°23' W 090°53'0 0.1
2016-May-25 04:33N 32°23' W 090°53'0 0.0
2016-May-25 03:33N 32°23' W 090°53'0 0.1
2016-May-25 02:33N 32°23' W 090°53'0 0.0
2016-May-25 01:33N 32°23' W 090°53'1 1.0
2016-May-25 00:33N 32°23' W 090°55'3 2.9
2016-May-24 23:33N 32°20' W 090°54'0 0.0
2016-May-24 22:30N 32°20' W 090°54'3 3.3
2016-May-24 21:34N 32°23' W 090°53'0 0.2
2016-May-24 20:33N 32°23' W 090°53'0 0.0
2016-May-24 19:33N 32°23' W 090°53'1 1.1
2016-May-24 18:33N 32°22' W 090°53'1 1.1
2016-May-24 17:33N 32°21' W 090°53'1 1.2
2016-May-24 16:33N 32°22' W 090°53'1 0.8
2016-May-24 15:34N 32°23' W 090°53'2 2.1
2016-May-24 14:34N 32°21' W 090°53'3 3.2
2016-May-24 13:34N 32°18' W 090°55'0 0.3
2016-May-24 12:33N 32°18' W 090°55'3 2.6
2016-May-24 11:34N 32°20' W 090°54'2 1.9
2016-May-24 10:34N 32°22' W 090°53'1 0.5
2016-May-24 09:33N 32°22' W 090°53'0 0.0
2016-May-24 08:34N 32°22' W 090°53'0 0.0
2016-May-24 07:34N 32°22' W 090°53'0 0.0
2016-May-24 06:34N 32°22' W 090°53'0 0.0
2016-May-24 05:33N 32°22' W 090°53'1 0.8
2016-May-24 04:33N 32°22' W 090°53'0 0.0
2016-May-24 03:34N 32°22' W 090°53'1 1.5
2016-May-24 02:34N 32°23' W 090°53'1 1.5
2016-May-24 01:33N 32°22' W 090°53'1 0.9
2016-May-24 00:33N 32°22' W 090°53'1 1.2
2016-May-23 23:33N 32°21' W 090°53'2 1.8
2016-May-23 22:33N 32°20' W 090°54'2 2.2
2016-May-23 21:33N 32°22' W 090°53'0 0.0
2016-May-23 20:33N 32°22' W 090°53'0 0.0
2016-May-23 19:33N 32°22' W 090°53'0 0.0
2016-May-23 18:33N 32°22' W 090°53'4 4.1
2016-May-23 17:33N 32°18' W 090°55'4 4.1
2016-May-23 16:33N 32°22' W 090°53'3 2.6
2016-May-23 15:33N 32°24' W 090°55'2 2.2
2016-May-23 14:33N 32°22' W 090°53'1 0.9
2016-May-23 13:33N 32°23' W 090°53'1 1.3
2016-May-23 12:33N 32°23' W 090°55'2 1.6
2016-May-23 11:33N 32°23' W 090°53'2 1.6
2016-May-23 10:34N 32°23' W 090°55'2 1.9
2016-May-23 09:34N 32°23' W 090°52'1 0.9
2016-May-23 08:34N 32°23' W 090°53'0 0.0
2016-May-23 07:34N 32°23' W 090°53'0 0.0
2016-May-23 06:34N 32°23' W 090°53'0 0.0
2016-May-23 05:33N 32°23' W 090°53'0 0.0
2016-May-23 04:34N 32°23' W 090°53'0 0.0
2016-May-23 03:34N 32°23' W 090°53'0 0.0
2016-May-23 02:34N 32°23' W 090°53'1 1.4
2016-May-23 01:34N 32°24' W 090°55'1 0.5
2016-May-23 00:34N 32°23' W 090°55'3 3.0
2016-May-22 23:34N 32°20' W 090°54'1 0.3
2016-May-22 21:34N 32°20' W 090°54'3 2.9
2016-May-22 20:33N 32°22' W 090°53'2 2.0
2016-May-22 19:34N 32°20' W 090°54'2 2.0
2016-May-22 18:34N 32°22' W 090°53'1 0.8
2016-May-22 17:34N 32°23' W 090°53'0 0.0
2016-May-22 16:34N 32°23' W 090°53'0 0.0
2016-May-22 15:34N 32°23' W 090°53'0 0.0
2016-May-22 14:34N 32°23' W 090°53'0 0.2
2016-May-22 13:33N 32°23' W 090°53'4 1.2
2016-May-22 10:32N 32°20' W 090°54'1 0.9
2016-May-22 09:33N 32°20' W 090°54'0 0.0
2016-May-22 08:33N 32°20' W 090°54'0 0.0
2016-May-22 07:33N 32°20' W 090°54'0 0.0
2016-May-22 06:33N 32°20' W 090°54'3 2.8
2016-May-22 05:33N 32°23' W 090°53'0 0.1
2016-May-22 04:33N 32°23' W 090°53'0 0.0
2016-May-22 03:33N 32°23' W 090°53'0 0.1
2016-May-22 02:33N 32°23' W 090°53'2 1.6
2016-May-22 01:33N 32°22' W 090°53'2 1.7
2016-May-22 00:33N 32°23' W 090°54'3 2.9
2016-May-21 23:33N 32°20' W 090°54'1 0.7
2016-May-21 22:33N 32°20' W 090°54'2 2.1
2016-May-21 21:33N 32°22' W 090°53'2 2.4
2016-May-21 20:33N 32°19' W 090°54'1 0.6
2016-May-21 19:33N 32°19' W 090°54'3 2.9
2016-May-21 18:33N 32°21' W 090°53'2 1.7
2016-May-21 17:33N 32°23' W 090°53'0 0.0
2016-May-21 16:33N 32°23' W 090°53'0 0.0
2016-May-21 15:33N 32°23' W 090°53'0 0.0
2016-May-21 14:33N 32°23' W 090°53'0 0.0
2016-May-21 13:33N 32°23' W 090°53'0 0.4
2016-May-21 12:33N 32°23' W 090°53'3 1.4
2016-May-21 10:04N 32°20' W 090°54'3 6.6
2016-May-21 09:33N 32°23' W 090°53'1 0.5
2016-May-21 08:33N 32°23' W 090°53'0 0.0
2016-May-21 07:34N 32°23' W 090°53'0 0.0
2016-May-21 06:33N 32°23' W 090°53'0 0.0
2016-May-21 05:33N 32°23' W 090°53'0 0.0
2016-May-21 04:33N 32°23' W 090°53'0 0.0
2016-May-21 03:34N 32°23' W 090°53'0 0.0
2016-May-21 02:33N 32°23' W 090°53'0 0.0
2016-May-21 01:33N 32°23' W 090°53'0 0.0
2016-May-21 00:34N 32°23' W 090°53'3 3.2
2016-May-20 23:33N 32°20' W 090°54'0 0.2
2016-May-20 21:34N 32°20' W 090°54'1 1.2
2016-May-20 20:34N 32°19' W 090°54'1 1.2
2016-May-20 19:33N 32°18' W 090°55'4 3.8
2016-May-20 18:33N 32°22' W 090°53'1 0.9
2016-May-20 17:34N 32°22' W 090°53'1 0.9
2016-May-20 16:33N 32°23' W 090°53'0 0.0
2016-May-20 15:33N 32°23' W 090°53'0 0.0
2016-May-20 14:33N 32°23' W 090°53'2 1.7
2016-May-20 13:34N 32°22' W 090°53'0 0.2
2016-May-20 12:33N 32°22' W 090°53'2 1.9
2016-May-20 11:33N 32°20' W 090°54'0 0.2
2016-May-20 10:17N 32°20' W 090°54'1 1.0
2016-May-20 09:33N 32°20' W 090°54'0 0.0
2016-May-20 08:33N 32°20' W 090°54'0 0.0
2016-May-20 07:33N 32°20' W 090°54'0 0.0
2016-May-20 06:33N 32°20' W 090°54'0 0.0
2016-May-20 05:33N 32°20' W 090°54'1 0.9
2016-May-20 04:33N 32°20' W 090°54'2 2.2
2016-May-20 03:33N 32°18' W 090°56'0 0.3
2016-May-20 02:33N 32°18' W 090°55'3 2.8
2016-May-20 01:33N 32°20' W 090°54'0 0.0
2016-May-20 00:33N 32°20' W 090°54'  
Track history (hours):
 
Tides and Currents Weather Stations Pressure Air Temp Water Temp Dewpoint Dewpoint Depression Visibility Wind Speed Wind Dir Waves Ship Positions

M/V Gs980

Owner: ERGON MARINE AND INDUSTRIAL SUPPLY, VICKSBURG, MS. More information available from US FCC via Universal Licensing System and Coast Guard Vessel Documentation Center.

Last reported at 2016-May-30 00:33 UTC. Time now 2016-May-30 01:05 UTC.
Position N 32°22' W 090°53'.

Length 16 m.

Type: Towing. MMSI: 367099640.

Date/timePositionNaut miles runAvg speedWind from/ knotsBaromVisibWave heightAir tempDewpointWater temp
2016-May-30 00:33N 32°22' W 090°53'2 0.6
2016-May-29 21:34N 32°20' W 090°54'0 0.4
2016-May-29 20:34N 32°21' W 090°53'0 0.4
2016-May-29 19:34N 32°20' W 090°54'1 1.4
2016-May-29 18:33N 32°21' W 090°53'1 0.6
2016-May-29 17:33N 32°22' W 090°53'4 3.8
2016-May-29 16:34N 32°21' W 090°57'0 0.3
2016-May-29 15:34N 32°21' W 090°57'4 3.8
2016-May-29 14:34N 32°23' W 090°53'1 0.6
2016-May-29 13:34N 32°22' W 090°53'1 0.7
2016-May-29 12:34N 32°22' W 090°53'1 0.7
2016-May-29 10:34N 32°20' W 090°54'1 1.4
2016-May-29 09:33N 32°22' W 090°53'0 0.0
2016-May-29 08:33N 32°22' W 090°53'0 0.0
2016-May-29 07:33N 32°22' W 090°53'0 0.0
2016-May-29 06:33N 32°22' W 090°53'0 0.0
2016-May-29 05:34N 32°22' W 090°53'0 0.0
2016-May-29 04:33N 32°22' W 090°53'0 0.0
2016-May-29 03:34N 32°22' W 090°53'1 1.2
2016-May-29 02:33N 32°23' W 090°53'1 0.6
2016-May-29 01:34N 32°22' W 090°53'1 0.9
2016-May-29 00:34N 32°21' W 090°53'2 0.9
2016-May-28 22:17N 32°20' W 090°54'1 1.6
2016-May-28 21:34N 32°21' W 090°53'0 0.2
2016-May-28 20:34N 32°21' W 090°54'3 2.7
2016-May-28 19:34N 32°21' W 090°57'1 0.6
2016-May-28 18:34N 32°21' W 090°56'3 3.4
2016-May-28 17:34N 32°23' W 090°53'1 1.3
2016-May-28 16:34N 32°22' W 090°53'0 0.3
2016-May-28 15:34N 32°22' W 090°53'1 0.7
2016-May-28 14:34N 32°22' W 090°53'1 0.7
2016-May-28 13:34N 32°22' W 090°53'2 0.4
2016-May-28 09:33N 32°20' W 090°54'0 0.1
2016-May-28 08:33N 32°20' W 090°54'3 2.7
2016-May-28 07:33N 32°21' W 090°57'0 0.1
2016-May-28 06:33N 32°21' W 090°57'3 3.1
2016-May-28 05:33N 32°21' W 090°53'2 2.0
2016-May-28 04:33N 32°23' W 090°53'0 0.4
2016-May-28 03:33N 32°23' W 090°53'1 0.7
2016-May-28 02:33N 32°22' W 090°53'1 0.7
2016-May-28 01:33N 32°22' W 090°53'2 2.1
2016-May-28 00:33N 32°23' W 090°55'4 3.6
2016-May-27 23:33N 32°20' W 090°54'0 0.0
2016-May-27 22:09N 32°20' W 090°54'3 4.6
2016-May-27 21:33N 32°22' W 090°53'2 1.9
2016-May-27 20:33N 32°20' W 090°54'1 1.0
2016-May-27 19:33N 32°21' W 090°53'2 1.9
2016-May-27 18:33N 32°23' W 090°53'0 0.3
2016-May-27 17:33N 32°23' W 090°53'0 0.3
2016-May-27 16:33N 32°23' W 090°53'0 0.0
2016-May-27 15:33N 32°23' W 090°53'1 0.7
2016-May-27 14:33N 32°22' W 090°53'0 0.0
2016-May-27 13:33N 32°22' W 090°53'1 0.8
2016-May-27 12:33N 32°23' W 090°53'2 2.4
2016-May-27 11:33N 32°21' W 090°53'1 1.3
2016-May-27 10:33N 32°20' W 090°54'0 0.0
2016-May-27 09:33N 32°20' W 090°54'4 3.6
2016-May-27 08:33N 32°23' W 090°55'2 2.0
2016-May-27 07:33N 32°22' W 090°53'2 1.8
2016-May-27 06:33N 32°20' W 090°54'1 0.8
2016-May-27 05:33N 32°21' W 090°55'2 1.8
2016-May-27 04:33N 32°21' W 090°57'3 2.8
2016-May-27 03:33N 32°21' W 090°54'0 0.3
2016-May-27 02:33N 32°21' W 090°53'1 0.5
2016-May-27 01:33N 32°20' W 090°54'0 0.0
2016-May-27 00:33N 32°20' W 090°54'0 0.1
2016-May-26 22:10N 32°20' W 090°54'3 4.7
2016-May-26 21:34N 32°23' W 090°54'0 0.0
2016-May-26 20:33N 32°23' W 090°54'1 1.4
2016-May-26 19:33N 32°22' W 090°52'0 0.5
2016-May-26 18:33N 32°22' W 090°53'0 0.0
2016-May-26 17:33N 32°22' W 090°53'0 0.2
2016-May-26 16:34N 32°22' W 090°53'1 0.9
2016-May-26 15:33N 32°23' W 090°54'0 0.0
2016-May-26 14:33N 32°23' W 090°54'1 1.3
2016-May-26 13:33N 32°22' W 090°53'0 0.2
2016-May-26 12:33N 32°22' W 090°53'2 2.0
2016-May-26 11:34N 32°20' W 090°54'0 0.1
2016-May-26 10:33N 32°20' W 090°54'1 1.4
2016-May-26 09:33N 32°22' W 090°53'0 0.0
2016-May-26 08:33N 32°22' W 090°53'0 0.0
2016-May-26 07:33N 32°22' W 090°53'0 0.0
2016-May-26 06:33N 32°22' W 090°53'0 0.0
2016-May-26 05:33N 32°22' W 090°53'0 0.0
2016-May-26 04:33N 32°22' W 090°53'0 0.0
2016-May-26 03:33N 32°22' W 090°53'1 0.6
2016-May-26 02:33N 32°22' W 090°53'0 0.5
2016-May-26 01:33N 32°23' W 090°52'4 4.4
2016-May-26 00:33N 32°21' W 090°57'1 1.4
2016-May-25 23:33N 32°21' W 090°56'2 0.2
2016-May-25 07:33N 32°22' W 090°53'2 1.7
2016-May-25 06:33N 32°23' W 090°53'0 0.1
2016-May-25 05:33N 32°23' W 090°53'0 0.1
2016-May-25 04:33N 32°23' W 090°53'0 0.0
2016-May-25 03:33N 32°23' W 090°53'0 0.1
2016-May-25 02:33N 32°23' W 090°53'0 0.0
2016-May-25 01:33N 32°23' W 090°53'1 1.0
2016-May-25 00:33N 32°23' W 090°55'3 2.9
2016-May-24 23:33N 32°20' W 090°54'0 0.0
2016-May-24 22:30N 32°20' W 090°54'3 3.3
2016-May-24 21:34N 32°23' W 090°53'0 0.2
2016-May-24 20:33N 32°23' W 090°53'0 0.0
2016-May-24 19:33N 32°23' W 090°53'1 1.1
2016-May-24 18:33N 32°22' W 090°53'1 1.1
2016-May-24 17:33N 32°21' W 090°53'1 1.2
2016-May-24 16:33N 32°22' W 090°53'1 0.8
2016-May-24 15:34N 32°23' W 090°53'2 2.1
2016-May-24 14:34N 32°21' W 090°53'3 3.2
2016-May-24 13:34N 32°18' W 090°55'0 0.3
2016-May-24 12:33N 32°18' W 090°55'3 2.6
2016-May-24 11:34N 32°20' W 090°54'2 1.9
2016-May-24 10:34N 32°22' W 090°53'1 0.5
2016-May-24 09:33N 32°22' W 090°53'0 0.0
2016-May-24 08:34N 32°22' W 090°53'0 0.0
2016-May-24 07:34N 32°22' W 090°53'0 0.0
2016-May-24 06:34N 32°22' W 090°53'0 0.0
2016-May-24 05:33N 32°22' W 090°53'1 0.8
2016-May-24 04:33N 32°22' W 090°53'0 0.0
2016-May-24 03:34N 32°22' W 090°53'1 1.5
2016-May-24 02:34N 32°23' W 090°53'1 1.5
2016-May-24 01:33N 32°22' W 090°53'1 0.9
2016-May-24 00:33N 32°22' W 090°53'1 1.2
2016-May-23 23:33N 32°21' W 090°53'2 1.8
2016-May-23 22:33N 32°20' W 090°54'2 2.2
2016-May-23 21:33N 32°22' W 090°53'0 0.0
2016-May-23 20:33N 32°22' W 090°53'0 0.0
2016-May-23 19:33N 32°22' W 090°53'0 0.0
2016-May-23 18:33N 32°22' W 090°53'4 4.1
2016-May-23 17:33N 32°18' W 090°55'4 4.1
2016-May-23 16:33N 32°22' W 090°53'3 2.6
2016-May-23 15:33N 32°24' W 090°55'2 2.2
2016-May-23 14:33N 32°22' W 090°53'1 0.9
2016-May-23 13:33N 32°23' W 090°53'1 1.3
2016-May-23 12:33N 32°23' W 090°55'2 1.6
2016-May-23 11:33N 32°23' W 090°53'2 1.6
2016-May-23 10:34N 32°23' W 090°55'2 1.9
2016-May-23 09:34N 32°23' W 090°52'1 0.9
2016-May-23 08:34N 32°23' W 090°53'0 0.0
2016-May-23 07:34N 32°23' W 090°53'0 0.0
2016-May-23 06:34N 32°23' W 090°53'0 0.0
2016-May-23 05:33N 32°23' W 090°53'0 0.0
2016-May-23 04:34N 32°23' W 090°53'0 0.0
2016-May-23 03:34N 32°23' W 090°53'0 0.0
2016-May-23 02:34N 32°23' W 090°53'1 1.4
2016-May-23 01:34N 32°24' W 090°55'1 0.5
2016-May-23 00:34N 32°23' W 090°55'3 3.0
2016-May-22 23:34N 32°20' W 090°54'1 0.3
2016-May-22 21:34N 32°20' W 090°54'3 2.9
2016-May-22 20:33N 32°22' W 090°53'2 2.0
2016-May-22 19:34N 32°20' W 090°54'2 2.0
2016-May-22 18:34N 32°22' W 090°53'1 0.8
2016-May-22 17:34N 32°23' W 090°53'0 0.0
2016-May-22 16:34N 32°23' W 090°53'0 0.0
2016-May-22 15:34N 32°23' W 090°53'0 0.0
2016-May-22 14:34N 32°23' W 090°53'0 0.2
2016-May-22 13:33N 32°23' W 090°53'4 1.2
2016-May-22 10:32N 32°20' W 090°54'1 0.9
2016-May-22 09:33N 32°20' W 090°54'0 0.0
2016-May-22 08:33N 32°20' W 090°54'0 0.0
2016-May-22 07:33N 32°20' W 090°54'0 0.0
2016-May-22 06:33N 32°20' W 090°54'3 2.8
2016-May-22 05:33N 32°23' W 090°53'0 0.1
2016-May-22 04:33N 32°23' W 090°53'0 0.0
2016-May-22 03:33N 32°23' W 090°53'0 0.1
2016-May-22 02:33N 32°23' W 090°53'2 1.6
2016-May-22 01:33N 32°22' W 090°53'2 1.7
2016-May-22 00:33N 32°23' W 090°54'3 2.9
2016-May-21 23:33N 32°20' W 090°54'1 0.7
2016-May-21 22:33N 32°20' W 090°54'2 2.1
2016-May-21 21:33N 32°22' W 090°53'2 2.4
2016-May-21 20:33N 32°19' W 090°54'1 0.6
2016-May-21 19:33N 32°19' W 090°54'3 2.9
2016-May-21 18:33N 32°21' W 090°53'2 1.7
2016-May-21 17:33N 32°23' W 090°53'0 0.0
2016-May-21 16:33N 32°23' W 090°53'0 0.0
2016-May-21 15:33N 32°23' W 090°53'0 0.0
2016-May-21 14:33N 32°23' W 090°53'0 0.0
2016-May-21 13:33N 32°23' W 090°53'0 0.4
2016-May-21 12:33N 32°23' W 090°53'3 1.4
2016-May-21 10:04N 32°20' W 090°54'3 6.6
2016-May-21 09:33N 32°23' W 090°53'1 0.5
2016-May-21 08:33N 32°23' W 090°53'0 0.0
2016-May-21 07:34N 32°23' W 090°53'0 0.0
2016-May-21 06:33N 32°23' W 090°53'0 0.0
2016-May-21 05:33N 32°23' W 090°53'0 0.0
2016-May-21 04:33N 32°23' W 090°53'0 0.0
2016-May-21 03:34N 32°23' W 090°53'0 0.0
2016-May-21 02:33N 32°23' W 090°53'0 0.0
2016-May-21 01:33N 32°23' W 090°53'0 0.0
2016-May-21 00:34N 32°23' W 090°53'3 3.2
2016-May-20 23:33N 32°20' W 090°54'0 0.2
2016-May-20 21:34N 32°20' W 090°54'1 1.2
2016-May-20 20:34N 32°19' W 090°54'1 1.2
2016-May-20 19:33N 32°18' W 090°55'4 3.8
2016-May-20 18:33N 32°22' W 090°53'1 0.9
2016-May-20 17:34N 32°22' W 090°53'1 0.9
2016-May-20 16:33N 32°23' W 090°53'0 0.0
2016-May-20 15:33N 32°23' W 090°53'0 0.0
2016-May-20 14:33N 32°23' W 090°53'2 1.7
2016-May-20 13:34N 32°22' W 090°53'0 0.2
2016-May-20 12:33N 32°22' W 090°53'2 1.9
2016-May-20 11:33N 32°20' W 090°54'0 0.2
2016-May-20 10:17N 32°20' W 090°54'1 1.0
2016-May-20 09:33N 32°20' W 090°54'0 0.0
2016-May-20 08:33N 32°20' W 090°54'0 0.0
2016-May-20 07:33N 32°20' W 090°54'0 0.0
2016-May-20 06:33N 32°20' W 090°54'0 0.0
2016-May-20 05:33N 32°20' W 090°54'1 0.9
2016-May-20 04:33N 32°20' W 090°54'2 2.2
2016-May-20 03:33N 32°18' W 090°56'0 0.3
2016-May-20 02:33N 32°18' W 090°55'3 2.8
2016-May-20 01:33N 32°20' W 090°54'0 0.0
2016-May-20 00:33N 32°20' W 090°54'  

Dump ship's entire track history